Latest Coastal Weather Observations for Wilsons Promontory

IDV60701

Issued at 2:42 am EST Saturday 27 May 2017 (issued every 10 minutes, with the page automatically refreshed every 10 minutes)

About coastal observations | Map of coastal stations | Coastal observations for VIC | Marine services | Other Formats
Station Details ID: 085096 Name: WILSONS PROMONTORY LIGHTHOUSE Lat: -39.13 Lon: 146.42 Height: 95.0 m
Data from the previous 72 hours. | See also: Recent months at Wilsons Promontory
Date/Time
EST
Temp
°C
Wind Pressure Rain since
9am
mm
Weather Cloud Vis
km
Sea
Height
m
Swell
Dir  Spd
kts
Gust
kts
hPa Trend Height
m
Period
s
Dir
27/02:30am 11.9 NNE 10 13 1018.0 - 0.0 - - - - - - -
27/02:00am 11.8 N 10 12 1018.2 - 0.0 - - - - - - -
27/01:30am 11.8 NNE 10 13 1018.3 - 0.0 - - - - - - -
27/01:00am 11.7 N 12 16 1018.7 - 0.0 - - - - - - -
27/12:30am 12.0 N 13 17 1019.0 - 0.0 - - - - - - -
27/12:00am 12.1 N 11 15 1019.2 - 0.0 - - - - - - -
 
Date/Time
EST
Temp
°C
Wind Pressure Rain since
9am
mm
Weather Cloud Vis
km
Sea
Height
m
Swell
Dir  Spd
kts
Gust
kts
hPa Trend Height
m
Period
s
Dir
26/11:30pm 12.3 N 11 16 1019.3 - 0.0 - - - - - - -
26/11:00pm 12.3 N 12 16 1019.4 - 0.0 - - - - - - -
26/10:30pm 12.1 NNE 11 15 1019.6 - 0.0 - - - - - - -
26/10:00pm 12.2 NNE 10 14 1019.6 - 0.0 - - - - - - -
26/09:30pm 12.2 NNE 9 13 1019.7 - 0.0 - - - - - - -
26/09:00pm 12.3 NNE 10 14 1019.9 - 0.0 - - - - - - -
26/08:00pm 11.6 NNE 6 7 1019.9 - 0.0 - - - - - - -
26/07:30pm 11.9 NNE 6 7 1020.0 - 0.0 - - - - - - -
26/07:00pm 11.9 N 3 4 1019.9 - 0.0 - - - - - - -
26/06:30pm 12.0 N 3 4 1019.8 - 0.0 - - - - - - -
26/06:00pm 12.2 NW 5 6 1019.8 - 0.0 - - - - - - -
26/05:30pm 12.4 NW 6 7 1019.6 - 0.0 - - - - - - -
26/05:00pm 12.5 NW 7 10 1019.7 - 0.0 - - - - - - -
26/04:30pm 12.7 WNW 6 8 1019.7 - 0.0 - - - - - - -
26/04:00pm 13.4 W 7 10 1019.8 - 0.0 - - - - - - -
26/03:30pm 13.8 W 8 12 1019.9 - 0.0 - - - - - - -
26/03:00pm 13.6 W 9 13 1019.6 - 0.0 - - - - - - -
26/02:30pm 13.8 WSW 11 15 1019.7 - 0.0 - - - - - - -
26/02:00pm 14.0 W 9 14 1019.9 - 0.0 - - - - - - -
26/01:30pm 14.1 W 11 15 1019.9 - 0.0 - - - - - - -
26/01:00pm 14.1 W 13 16 1020.2 - 0.0 - - - - - - -
26/12:30pm 14.5 W 11 16 1020.4 - 0.0 - - - - - - -
26/12:00pm 14.4 W 14 18 1020.5 - 0.0 - - - - - - -
26/11:30am 14.4 W 12 20 1020.9 - 0.0 - - - - - - -
26/11:00am 14.0 WSW 21 27 1020.9 - 0.0 - - - - - - -
26/10:30am 13.9 W 15 22 1021.0 - 0.0 - - - - - - -
26/10:00am 14.2 W 16 21 1021.0 - 0.0 - - - - - - -
26/09:30am 14.0 W 12 19 1021.0 - 0.0 - - - - - - -
26/09:00am 13.8 W 15 22 1020.9 - 7.6 - - - - - - -
26/08:30am 13.7 W 16 21 1020.6 - 7.6 - - - - - - -
26/08:00am 13.2 W 18 24 1020.4 - 7.6 - - - - - - -
26/07:30am 13.1 WSW 26 29 1019.6 - 7.6 - - - - - - -
26/07:10am 13.2 W 16 28 1019.5 - 7.6 - - - - - - -
26/07:00am 13.2 W 15 21 1019.6 - 7.6 - - - - - - -
26/06:47am 13.3 W 18 28 1019.2 - 7.6 - - - - - - -
26/06:30am 13.0 W 19 28 1019.1 - 7.6 - - - - - - -
26/06:07am 13.5 WSW 23 33 1018.6 - 7.6 - - - - - - -
26/06:00am 13.5 WSW 26 32 1018.4 - 7.6 - - - - - - -
26/05:51am 13.5 W 20 30 1018.2 - 7.6 - - - - - - -
26/05:30am 13.4 W 18 27 1018.2 - 7.6 - - - - - - -
26/05:00am 13.7 W 19 28 1017.7 - 7.6 - - - - - - -
26/04:30am 13.7 WSW 21 29 1017.6 - 7.6 - - - - - - -
26/04:20am 13.6 W 22 32 1017.6 - 7.6 - - - - - - -
26/04:00am 13.7 WSW 27 33 1017.1 - 7.6 - - - - - - -
26/03:48am 13.7 WSW 30 32 1017.0 - 7.6 - - - - - - -
26/03:38am 13.8 W 19 29 1017.2 - 7.6 - - - - - - -
26/03:30am 13.8 W 14 27 1017.4 - 7.6 - - - - - - -
26/03:00am 13.3 WSW 15 25 1017.1 - 7.6 - - - - - - -
26/02:51am 13.1 W 14 23 1017.3 - 7.6 - - - - - - -
26/02:31am 13.2 SW 26 37 1016.5 - 7.6 - - - - - - -
26/02:30am 13.4 WSW 25 33 1016.5 - 7.6 - - - - - - -
26/02:09am 14.0 W 15 26 1017.1 - 7.6 - - - - - - -
26/02:00am 13.7 W 16 22 1017.1 - 7.6 - - - - - - -
26/01:30am 13.7 W 16 21 1016.9 - 7.6 - - - - - - -
26/01:00am 13.9 W 14 22 1017.0 - 7.6 - - - - - - -
26/12:32am 13.9 W 18 28 1016.7 - 7.6 - - - - - - -
26/12:30am 13.9 W 19 28 1016.9 - 7.6 - - - - - - -
26/12:09am 13.8 W 20 30 1016.7 - 7.6 - - - - - - -
26/12:00am 13.8 W 17 23 1016.9 - 7.0 - - - - - - -
 
Date/Time
EST
Temp
°C
Wind Pressure Rain since
9am
mm
Weather Cloud Vis
km
Sea
Height
m
Swell
Dir  Spd
kts
Gust
kts
hPa Trend Height
m
Period
s
Dir
25/11:30pm 13.7 W 19 26 1016.7 - 7.0 - - - - - - -
25/11:04pm 13.7 W 20 30 1016.9 - 7.0 - - - - - - -
25/11:00pm 13.7 W 22 30 1016.8 - 7.0 - - - - - - -
25/10:35pm 13.2 W 19 30 1016.6 - 7.0 - - - - - - -
25/10:30pm 13.0 W 18 32 1016.6 - 7.0 - - - - - - -
25/10:08pm 12.8 W 29 39 1016.3 - 6.0 - - - - - - -
25/10:05pm 13.1 W 30 39 1015.9 - 5.6 - - - - - - -
25/10:00pm 13.6 WNW 16 29 1016.0 - 3.4 - - - - - - -
25/09:30pm 14.2 WNW 17 31 1015.8 - 0.0 - - - - - - -
25/09:18pm 14.1 WNW 15 33 1015.8 - 0.0 - - - - - - -
25/09:00pm 14.1 WNW 13 26 1015.7 - 0.0 - - - - - - -
25/08:30pm 14.0 WNW 15 37 1015.9 - 0.0 - - - - - - -
25/08:18pm 14.0 WNW 15 29 1015.6 - 0.0 - - - - - - -
25/08:00pm 14.0 NW 14 27 1015.7 - 0.0 - - - - - - -
25/07:40pm 14.0 WNW 18 31 1015.9 - 0.0 - - - - - - -
25/07:30pm 13.8 N 8 26 1015.9 - 0.0 - - - - - - -
25/07:00pm 13.9 NNW 7 15 1016.0 - 0.0 - - - - - - -
25/06:30pm 14.2 WNW 10 20 1015.9 - 0.0 - - - - - - -
25/06:00pm 14.2 NW 9 25 1015.9 - 0.0 - - - - - - -
25/05:30pm 14.1 NNE 5 13 1015.6 - 0.0 - - - - - - -
25/05:00pm 14.2 NNW 11 20 1015.6 - 0.0 - - - - - - -
25/04:00pm 14.4 NW 7 14 1015.6 - 0.0 - - - - - - -
25/03:30pm 14.3 W 8 25 1015.8 - 0.0 - - - - - - -
25/03:00pm 14.4 WNW 15 29 1015.9 - 0.0 - - - - - - -
25/02:59pm 14.3 WNW 15 29 1015.8 - 0.0 - - - - - - -
25/02:30pm 14.0 WNW 12 23 1015.8 - 0.0 - - - - - - -
25/02:00pm 13.7 WNW 17 33 1016.0 - 0.0 - - - - - - -
25/01:30pm 13.8 W 18 32 1016.1 - 0.0 - - - - - - -
25/01:00pm 14.0 WNW 18 35 1016.4 - 0.0 - - - - - - -
25/12:30pm 13.7 W 19 33 1016.6 - 0.0 - - - - - - -
25/12:00pm 13.9 W 20 33 1017.0 - 0.0 - - - - - - -
25/11:30am 13.5 W 18 33 1017.7 - 0.0 - - - - - - -
25/11:01am 13.5 W 15 25 1018.2 - 0.0 - - - - - - -
25/11:00am 13.5 W 16 25 1018.2 - 0.0 - - - - - - -
25/10:56am 13.5 W 15 25 1018.1 - 0.0 - - - - - - -
25/10:30am 13.3 W 11 19 1018.5 - 0.0 - - - - - - -
25/10:00am 13.1 ESE 4 7 1018.5 - 0.0 - - - - - - -
25/09:30am 13.0 NE 5 10 1018.5 - 0.0 - - - - - - -
25/09:00am 12.7 NNW 11 19 1018.3 - 8.2 - - - - - - -
25/08:30am 12.5 NW 9 19 1018.3 - 8.2 - - - - - - -
25/08:00am 12.4 NNW 10 21 1018.2 - 8.2 - - - - - - -
25/07:30am 12.8 WNW 16 23 1017.8 - 8.2 - - - - - - -
25/07:00am 13.2 W 18 28 1017.5 - 8.2 - - - - - - -
25/06:30am 13.0 W 19 32 1017.2 - 8.2 - - - - - - -
25/06:00am 13.1 W 18 28 1016.9 - 8.2 - - - - - - -
25/05:34am 13.0 W 19 29 1016.9 - 8.0 - - - - - - -
25/05:30am 13.0 W 21 29 1016.8 - 8.0 - - - - - - -
25/05:22am 12.9 W 15 28 1016.8 - 8.0 - - - - - - -
25/05:00am 12.5 W 16 22 1016.9 - 8.0 - - - - - - -
25/04:37am 12.8 W 20 32 1016.5 - 7.2 - - - - - - -
25/04:30am 12.7 W 20 29 1016.6 - 7.2 - - - - - - -
25/04:04am 12.2 W 20 30 1016.6 - 7.0 - - - - - - -
25/04:00am 12.3 W 21 30 1016.5 - 7.0 - - - - - - -
25/03:52am 12.8 W 19 30 1016.4 - 7.0 - - - - - - -
25/03:30am 12.7 W 16 22 1016.8 - 7.0 - - - - - - -
25/03:00am 12.4 W 16 24 1016.7 - 6.8 - - - - - - -
25/02:42am 13.0 W 15 25 1016.7 - 6.8 - - - - - - -
25/02:30am 12.8 W 16 24 1016.7 - 6.8 - - - - - - -
25/02:00am 12.4 W 16 24 1016.6 - 6.8 - - - - - - -
25/01:30am 12.1 W 15 22 1016.7 - 6.8 - - - - - - -
25/01:06am 13.0 W 19 29 1016.4 - 6.4 - - - - - - -
25/01:00am 13.4 W 19 26 1016.3 - 6.4 - - - - - - -
25/12:31am 13.1 W 17 27 1016.6 - 6.4 - - - - - - -
25/12:30am 13.1 W 18 26 1016.7 - 6.4 - - - - - - -
25/12:17am 13.1 W 18 28 1016.7 - 6.4 - - - - - - -
25/12:00am 13.3 W 15 23 1016.9 - 6.4 - - - - - - -
 
Date/Time
EST
Temp
°C
Wind Pressure Rain since
9am
mm
Weather Cloud Vis
km
Sea
Height
m
Swell
Dir  Spd
kts
Gust
kts
hPa Trend Height
m
Period
s
Dir
24/11:30pm 13.2 W 19 25 1016.9 - 6.4 - - - - - - -
24/11:15pm 13.0 W 17 27 1016.9 - 6.4 - - - - - - -
24/11:00pm 12.8 W 18 26 1017.0 - 6.4 - - - - - - -
24/10:30pm 13.2 W 21 26 1016.8 - 6.4 - - - - - - -
24/10:00pm 12.9 W 19 29 1016.8 - 6.4 - - - - - - -
24/09:40pm 13.1 W 17 27 1016.9 - 6.4 - - - - - - -
24/09:30pm 13.0 W 19 26 1016.8 - 6.4 - - - - - - -
24/09:00pm 12.6 W 19 32 1016.5 - 6.4 - - - - - - -
24/08:50pm 12.7 W 19 29 1016.4 - 6.4 - - - - - - -
24/08:30pm 12.7 W 23 31 1016.1 - 6.4 - - - - - - -
24/08:00pm 12.1 W 22 36 1016.1 - 6.0 - - - - - - -
24/07:30pm 12.9 W 22 35 1015.9 - 6.0 - - - - - - -
24/07:00pm 12.6 W 24 34 1015.3 - 6.0 - - - - - - -
24/06:30pm 13.1 W 21 34 1015.3 - 5.8 - - - - - - -
24/06:03pm 12.6 W 27 37 1015.0 - 5.8 - - - - - - -
24/06:00pm 12.7 W 28 37 1014.9 - 5.8 - - - - - - -
24/05:30pm 13.4 W 22 32 1014.3 - 5.4 - - - - - - -
24/05:00pm 13.2 W 28 38 1014.0 - 5.4 - - - - - - -
24/04:40pm 13.5 W 27 37 1013.7 - 5.2 - - - - - - -
24/04:30pm 13.5 W 26 35 1013.6 - 5.2 - - - - - - -
24/04:01pm 13.3 W 31 41 1013.1 - 5.2 - - - - - - -
24/03:30pm 13.6 W 26 39 1012.8 - 5.2 - - - - - - -
24/03:03pm 13.5 W 30 40 1012.1 - 5.2 - - - - - - -
24/03:00pm 13.4 W 30 39 1012.1 - 5.2 - - - - - - -
24/02:30pm 13.0 W 28 39 1011.9 - 5.2 - - - - - - -
24/02:02pm 12.0 W 28 38 1011.5 - 5.2 - - - - - - -
24/02:00pm 12.3 W 29 38 1011.5 - 5.2 - - - - - - -
24/01:31pm 13.1 W 27 37 1011.2 - 5.2 - - - - - - -
24/01:30pm 13.2 W 26 35 1011.3 - 5.2 - - - - - - -
24/01:00pm 13.0 W 27 38 1010.8 - 5.2 - - - - - - -
24/12:38pm 13.2 W 27 37 1011.0 - 5.2 - - - - - - -
24/12:30pm 13.1 W 28 37 1011.2 - 5.2 - - - - - - -
24/12:00pm 12.5 W 26 39 1011.6 - 5.2 - - - - - - -
24/11:30am 12.4 W 20 31 1012.0 - 5.0 - - - - - - -
24/11:00am 12.7 W 24 35 1011.6 - 2.6 - - - - - - -
24/10:30am 12.5 W 27 40 1011.5 - 2.2 - - - - - - -
24/10:00am 12.7 W 24 36 1011.4 - 1.4 - - - - - - -
24/09:30am 12.9 W 23 38 1010.9 - 0.6 - - - - - - -
24/09:01am 13.8 W 21 31 1011.1 - 0.0 - - - - - - -
24/09:00am 13.8 W 22 31 1011.1 - 14.8 - - - - - - -
24/08:30am 13.2 W 23 34 1011.0 - 14.8 - - - - - - -
24/08:00am 13.3 W 24 37 1010.3 - 14.8 - - - - - - -
24/07:37am 13.2 W 19 30 1010.6 - 14.8 - - - - - - -
24/07:30am 13.1 W 19 27 1010.5 - 14.8 - - - - - - -
24/07:05am 12.5 W 18 29 1010.4 - 14.4 - - - - - - -
24/07:00am 12.9 W 18 25 1010.4 - 14.2 - - - - - - -
24/06:34am 13.6 W 20 30 1009.9 - 13.0 - - - - - - -
24/06:30am 13.6 W 21 29 1009.9 - 12.6 - - - - - - -
24/06:00am 13.4 W 23 33 1009.6 - 12.6 - - - - - - -
24/05:33am 13.3 W 22 32 1009.5 - 12.6 - - - - - - -
24/05:30am 13.3 W 21 30 1009.5 - 12.6 - - - - - - -
24/05:11am 13.2 W 15 27 1009.7 - 12.6 - - - - - - -
24/05:00am 13.0 W 13 25 1009.8 - 12.6 - - - - - - -
24/04:53am 12.9 W 15 25 1009.7 - 12.6 - - - - - - -
24/04:30am 13.6 WNW 14 23 1009.7 - 9.8 - - - - - - -
24/04:00am 13.6 NW 12 21 1010.2 - 9.6 - - - - - - -
24/03:30am 13.9 WNW 12 21 1010.3 - 9.2 - - - - - - -
24/03:00am 14.0 NNW 7 13 1010.3 - 9.2 - - - - - - -

Other Formats:

Comma delimited format used in spreadsheet applications
http://www.bom.gov.au/fwo/IDV60701/IDV60701.94893.axf

JavaScript Object Notation format (JSON) in row-major order
http://www.bom.gov.au/fwo/IDV60701/IDV60701.94893.json